createdAt,value
2016-08-20T00:00:59.415Z,964.61
2016-08-20T00:01:59.414Z,964.64
2016-08-20T00:02:59.414Z,964.57
2016-08-20T00:03:59.414Z,964.54
2016-08-20T00:04:59.415Z,964.55
2016-08-20T00:05:59.416Z,964.57
2016-08-20T00:06:59.414Z,964.63
2016-08-20T00:07:59.413Z,964.66
2016-08-20T00:08:59.416Z,964.66
2016-08-20T00:09:59.414Z,964.71
2016-08-20T00:10:59.415Z,964.74
2016-08-20T00:11:59.414Z,964.73
2016-08-20T00:12:59.419Z,964.68
2016-08-20T00:13:59.414Z,964.66
2016-08-20T00:14:59.415Z,964.7
2016-08-20T00:15:59.415Z,964.67
2016-08-20T00:16:59.418Z,964.73
2016-08-20T00:17:59.414Z,964.76
2016-08-20T00:18:59.414Z,964.77
2016-08-20T00:19:59.419Z,964.79
2016-08-20T00:20:59.418Z,964.8
2016-08-20T00:21:59.418Z,964.78
2016-08-20T00:22:59.419Z,964.78
2016-08-20T00:23:59.419Z,964.78
2016-08-20T00:24:59.418Z,964.81
2016-08-20T00:25:59.419Z,964.8
2016-08-20T00:26:59.419Z,964.83
2016-08-20T00:27:59.419Z,964.83
2016-08-20T00:28:59.419Z,964.82
2016-08-20T00:29:59.418Z,964.75
2016-08-20T00:30:59.419Z,964.71
2016-08-20T00:31:59.420Z,964.68
2016-08-20T00:32:59.474Z,964.69
2016-08-20T00:33:59.420Z,964.71
2016-08-20T00:34:59.423Z,964.74
2016-08-20T00:35:59.419Z,964.75
2016-08-20T00:36:59.424Z,964.76
2016-08-20T00:37:59.424Z,964.77
2016-08-20T00:38:59.424Z,964.8
2016-08-20T00:39:59.423Z,964.79
2016-08-20T00:40:59.423Z,964.82
2016-08-20T00:41:59.424Z,964.85
2016-08-20T00:42:59.424Z,964.84
2016-08-20T00:43:59.424Z,964.89
2016-08-20T00:44:59.424Z,964.92
2016-08-20T00:45:59.424Z,964.89
2016-08-20T00:46:59.424Z,964.92
2016-08-20T00:47:59.424Z,964.9
2016-08-20T00:48:59.425Z,964.93
2016-08-20T00:49:59.424Z,964.91
2016-08-20T00:50:59.423Z,964.87
2016-08-20T00:51:59.425Z,964.88
2016-08-20T00:52:59.424Z,964.86
2016-08-20T00:53:59.424Z,964.86
2016-08-20T00:54:59.423Z,964.82
2016-08-20T00:55:59.424Z,964.86
2016-08-20T00:56:59.424Z,964.86
2016-08-20T00:57:59.425Z,964.88
2016-08-20T00:58:59.425Z,964.93
2016-08-20T00:59:59.428Z,964.94
2016-08-20T01:00:59.428Z,964.97
2016-08-20T01:01:59.429Z,964.92
2016-08-20T01:02:59.429Z,964.91
2016-08-20T01:03:59.429Z,964.9
2016-08-20T01:04:59.424Z,964.92
2016-08-20T01:05:59.429Z,964.96
2016-08-20T01:06:59.429Z,964.99
2016-08-20T01:07:59.429Z,965
2016-08-20T01:08:59.428Z,965.05
2016-08-20T01:09:59.429Z,965.06
2016-08-20T01:10:59.430Z,965.15
2016-08-20T01:11:59.429Z,965.13
2016-08-20T01:12:59.429Z,965.12
2016-08-20T01:13:59.429Z,965.15
2016-08-20T01:14:59.429Z,965.16
2016-08-20T01:15:59.428Z,965.17
2016-08-20T01:16:59.430Z,965.16
2016-08-20T01:17:59.429Z,965.16
2016-08-20T01:18:59.429Z,965.2
2016-08-20T01:19:59.429Z,965.21
2016-08-20T01:20:59.429Z,965.19
2016-08-20T01:21:59.429Z,965.14
2016-08-20T01:22:59.428Z,965.19
2016-08-20T01:23:59.437Z,965.14
2016-08-20T01:24:59.431Z,965.16
2016-08-20T01:25:59.429Z,965.16
2016-08-20T01:26:59.429Z,965.13
2016-08-20T01:27:59.430Z,965.16
2016-08-20T01:28:59.432Z,965.15
2016-08-20T01:29:59.434Z,965.16
2016-08-20T01:30:59.429Z,965.11
2016-08-20T01:31:59.433Z,965.16
2016-08-20T01:32:59.432Z,965.18
2016-08-20T01:33:59.434Z,965.19
2016-08-20T01:34:59.434Z,965.18
2016-08-20T01:35:59.433Z,965.21
2016-08-20T01:36:59.433Z,965.18
2016-08-20T01:37:59.433Z,965.21
2016-08-20T01:38:59.434Z,965.19
2016-08-20T01:39:59.433Z,965.18
2016-08-20T01:40:59.433Z,965.21
2016-08-20T01:41:59.434Z,965.21
2016-08-20T01:42:59.434Z,965.21
2016-08-20T01:43:59.434Z,965.2
2016-08-20T01:44:59.434Z,965.24
2016-08-20T01:45:59.434Z,965.27
2016-08-20T01:46:59.448Z,965.27
2016-08-20T01:47:59.434Z,965.3
2016-08-20T01:48:59.435Z,965.31
2016-08-20T01:49:59.433Z,965.27
2016-08-20T01:50:59.434Z,965.32
2016-08-20T01:51:59.434Z,965.31
2016-08-20T01:52:59.435Z,965.34
2016-08-20T01:53:59.434Z,965.3
2016-08-20T01:54:59.433Z,965.33
2016-08-20T01:55:59.434Z,965.31
2016-08-20T01:56:59.435Z,965.28
2016-08-20T01:57:59.434Z,965.32
2016-08-20T01:58:59.439Z,965.3
2016-08-20T01:59:59.435Z,965.3
2016-08-20T02:00:59.434Z,965.25
2016-08-20T02:01:59.438Z,965.31
2016-08-20T02:02:59.439Z,965.29
2016-08-20T02:03:59.435Z,965.29
2016-08-20T02:04:59.439Z,965.28
2016-08-20T02:05:59.439Z,965.29
2016-08-20T02:06:59.439Z,965.27
2016-08-20T02:07:59.439Z,965.27
2016-08-20T02:08:59.440Z,965.3
2016-08-20T02:09:59.450Z,965.3
2016-08-20T02:10:59.439Z,965.31
2016-08-20T02:11:59.439Z,965.33
2016-08-20T02:12:59.442Z,965.35
2016-08-20T02:13:59.439Z,965.33
2016-08-20T02:14:59.439Z,965.33
2016-08-20T02:15:59.440Z,965.32
2016-08-20T02:16:59.439Z,965.28
2016-08-20T02:17:59.438Z,965.27
2016-08-20T02:18:59.439Z,965.28
2016-08-20T02:19:59.440Z,965.29
2016-08-20T02:20:59.439Z,965.29
2016-08-20T02:21:59.439Z,965.24
2016-08-20T02:22:59.439Z,965.26
2016-08-20T02:23:59.440Z,965.25
2016-08-20T02:24:59.439Z,965.24
2016-08-20T02:25:59.439Z,965.23
2016-08-20T02:26:59.440Z,965.23
2016-08-20T02:27:59.443Z,965.21
2016-08-20T02:28:59.440Z,965.22
2016-08-20T02:29:59.440Z,965.2
2016-08-20T02:30:59.444Z,965.14
2016-08-20T02:31:59.444Z,965.17
2016-08-20T02:32:59.492Z,965.15
2016-08-20T02:33:59.444Z,965.14
2016-08-20T02:34:59.444Z,965.12
2016-08-20T02:35:59.444Z,965.14
2016-08-20T02:36:59.444Z,965.11
2016-08-20T02:37:59.444Z,965.13
2016-08-20T02:38:59.444Z,965.13
2016-08-20T02:39:59.444Z,965.13
2016-08-20T02:40:59.444Z,965.14
2016-08-20T02:41:59.444Z,965.16
2016-08-20T02:42:59.443Z,965.17
2016-08-20T02:43:59.445Z,965.2
2016-08-20T02:44:59.444Z,965.18
2016-08-20T02:45:59.444Z,965.21
2016-08-20T02:46:59.444Z,965.17
2016-08-20T02:47:59.454Z,965.19
2016-08-20T02:48:59.445Z,965.2
2016-08-20T02:49:59.444Z,965.22
2016-08-20T02:50:59.444Z,965.21
2016-08-20T02:51:59.445Z,965.22
2016-08-20T02:52:59.444Z,965.2
2016-08-20T02:53:59.445Z,965.21
2016-08-20T02:54:59.444Z,965.16
2016-08-20T02:55:59.444Z,965.21
2016-08-20T02:56:59.460Z,965.16
2016-08-20T02:57:59.445Z,965.15
2016-08-20T02:58:59.445Z,965.15
2016-08-20T02:59:59.444Z,965.12
2016-08-20T03:00:59.444Z,965.11
2016-08-20T03:01:59.445Z,965.12
2016-08-20T03:02:59.445Z,965.08
2016-08-20T03:03:59.447Z,965.13
2016-08-20T03:04:59.444Z,965.16
2016-08-20T03:05:59.445Z,965.16
2016-08-20T03:06:59.445Z,965.13
2016-08-20T03:07:59.445Z,965.13
2016-08-20T03:08:59.445Z,965.16
2016-08-20T03:09:59.445Z,965.16
2016-08-20T03:10:59.445Z,965.15
2016-08-20T03:11:59.449Z,965.19
2016-08-20T03:12:59.446Z,965.24
2016-08-20T03:13:59.446Z,965.3
2016-08-20T03:14:59.446Z,965.27
2016-08-20T03:15:59.449Z,965.3
2016-08-20T03:16:59.446Z,965.25
2016-08-20T03:17:59.446Z,965.25
2016-08-20T03:18:59.450Z,965.27
2016-08-20T03:19:59.450Z,965.25
2016-08-20T03:20:59.445Z,965.24
2016-08-20T03:21:59.450Z,965.23
2016-08-20T03:22:59.450Z,965.21
2016-08-20T03:23:59.449Z,965.17
2016-08-20T03:24:59.449Z,965.14
2016-08-20T03:25:59.449Z,965.16
2016-08-20T03:26:59.450Z,965.11
2016-08-20T03:27:59.450Z,965.09
2016-08-20T03:28:59.450Z,965.11
2016-08-20T03:29:59.450Z,965.12
2016-08-20T03:30:59.450Z,965.13
2016-08-20T03:31:59.450Z,965.07
2016-08-20T03:32:59.450Z,965.08
2016-08-20T03:33:59.450Z,965.08
2016-08-20T03:34:59.450Z,965.08
2016-08-20T03:35:59.450Z,965.11
2016-08-20T03:36:59.451Z,965.13
2016-08-20T03:37:59.450Z,965.13
2016-08-20T03:38:59.450Z,965.09
2016-08-20T03:39:59.451Z,965.07
2016-08-20T03:40:59.450Z,965.06
2016-08-20T03:41:59.450Z,965.02
2016-08-20T03:42:59.450Z,965.08
2016-08-20T03:43:59.451Z,965.06
2016-08-20T03:44:59.451Z,965.04
2016-08-20T03:45:59.450Z,965.05
2016-08-20T03:46:59.457Z,965.06
2016-08-20T03:47:59.450Z,965.05
2016-08-20T03:48:59.450Z,965.08
2016-08-20T03:49:59.451Z,965.09
2016-08-20T03:50:59.451Z,965.11
2016-08-20T03:51:59.451Z,965.11
2016-08-20T03:52:59.451Z,965.13
2016-08-20T03:53:59.450Z,965.13
2016-08-20T03:54:59.451Z,965.14
2016-08-20T03:55:59.451Z,965.1
2016-08-20T03:56:59.451Z,965.13
2016-08-20T03:57:59.450Z,965.12
2016-08-20T03:58:59.451Z,965.13
2016-08-20T03:59:59.451Z,965.14
2016-08-20T04:00:59.451Z,965.15
2016-08-20T04:01:59.451Z,965.16
2016-08-20T04:02:59.451Z,965.17
2016-08-20T04:03:59.450Z,965.18
2016-08-20T04:04:59.452Z,965.21
2016-08-20T04:05:59.451Z,965.17
2016-08-20T04:06:59.452Z,965.24
2016-08-20T04:07:59.451Z,965.2
2016-08-20T04:08:59.451Z,965.23
2016-08-20T04:09:59.452Z,965.26
2016-08-20T04:10:59.453Z,965.22
2016-08-20T04:11:59.451Z,965.21
2016-08-20T04:12:59.452Z,965.23
2016-08-20T04:13:59.451Z,965.16
2016-08-20T04:14:59.451Z,965.19
2016-08-20T04:15:59.452Z,965.18
2016-08-20T04:16:59.452Z,965.18
2016-08-20T04:17:59.452Z,965.22
2016-08-20T04:18:59.452Z,965.18
2016-08-20T04:19:59.454Z,965.2
2016-08-20T04:20:59.452Z,965.2
2016-08-20T04:21:59.452Z,965.22
2016-08-20T04:22:59.452Z,965.22
2016-08-20T04:23:59.452Z,965.24
2016-08-20T04:24:59.452Z,965.21
2016-08-20T04:25:59.452Z,965.19
2016-08-20T04:26:59.452Z,965.23
2016-08-20T04:27:59.452Z,965.23
2016-08-20T04:28:59.451Z,965.18
2016-08-20T04:29:59.451Z,965.17
2016-08-20T04:30:59.451Z,965.15
2016-08-20T04:31:59.452Z,965.13
2016-08-20T04:32:59.604Z,965.16
2016-08-20T04:33:59.452Z,965.17
2016-08-20T04:34:59.452Z,965.17
2016-08-20T04:35:59.452Z,965.16
2016-08-20T04:36:59.452Z,965.11
2016-08-20T04:37:59.452Z,965.07
2016-08-20T04:38:59.452Z,965.07
2016-08-20T04:39:59.453Z,965.03
2016-08-20T04:40:59.453Z,965.02
2016-08-20T04:41:59.453Z,965.01
2016-08-20T04:42:59.453Z,965.02
2016-08-20T04:43:59.453Z,965.05
2016-08-20T04:44:59.453Z,964.99
2016-08-20T04:45:59.453Z,965.01
2016-08-20T04:46:59.452Z,965.05
2016-08-20T04:47:59.453Z,965.06
2016-08-20T04:48:59.453Z,965.05
2016-08-20T04:49:59.453Z,965.02
2016-08-20T04:50:59.453Z,965.02
2016-08-20T04:51:59.452Z,965.04
2016-08-20T04:52:59.454Z,965.07
2016-08-20T04:53:59.453Z,965.08
2016-08-20T04:54:59.457Z,965.1
2016-08-20T04:55:59.452Z,965.1
2016-08-20T04:56:59.453Z,965.13
2016-08-20T04:57:59.453Z,965.13
2016-08-20T04:58:59.453Z,965.15
2016-08-20T04:59:59.453Z,965.15
2016-08-20T05:00:59.457Z,965.19
2016-08-20T05:01:59.457Z,965.18
2016-08-20T05:02:59.453Z,965.22
2016-08-20T05:03:59.457Z,965.2
2016-08-20T05:04:59.457Z,965.22
2016-08-20T05:05:59.457Z,965.24
2016-08-20T05:06:59.457Z,965.23
2016-08-20T05:07:59.457Z,965.27
2016-08-20T05:08:59.457Z,965.28
2016-08-20T05:09:59.457Z,965.29
2016-08-20T05:10:59.457Z,965.28
2016-08-20T05:11:59.458Z,965.3
2016-08-20T05:12:59.457Z,965.26
2016-08-20T05:13:59.457Z,965.21
2016-08-20T05:14:59.457Z,965.23
2016-08-20T05:15:59.457Z,965.17
2016-08-20T05:16:59.457Z,965.14
2016-08-20T05:17:59.458Z,965.15
2016-08-20T05:18:59.461Z,965.13
2016-08-20T05:19:59.462Z,965.14
2016-08-20T05:20:59.461Z,965.16
2016-08-20T05:21:59.460Z,965.13
2016-08-20T05:22:59.462Z,965.13
2016-08-20T05:23:59.462Z,965.19
2016-08-20T05:24:59.462Z,965.24
2016-08-20T05:25:59.462Z,965.23
2016-08-20T05:26:59.461Z,965.24
2016-08-20T05:27:59.462Z,965.22
2016-08-20T05:28:59.466Z,965.18
2016-08-20T05:29:59.465Z,965.16
2016-08-20T05:30:59.465Z,965.17
2016-08-20T05:31:59.466Z,965.17
2016-08-20T05:32:59.466Z,965.17
2016-08-20T05:33:59.470Z,965.14
2016-08-20T05:34:59.471Z,965.14
2016-08-20T05:35:59.470Z,965.17
2016-08-20T05:36:59.470Z,965.13
2016-08-20T05:37:59.480Z,965.13
2016-08-20T05:38:59.474Z,965.09
2016-08-20T05:39:59.474Z,965.11
2016-08-20T05:40:59.478Z,965.1
2016-08-20T05:41:59.478Z,965.09
2016-08-20T05:42:59.478Z,965.07
2016-08-20T05:43:59.479Z,965.1
2016-08-20T05:44:59.482Z,965.15
2016-08-20T05:45:59.482Z,965.16
2016-08-20T05:46:59.482Z,965.16
2016-08-20T05:47:59.487Z,965.16
2016-08-20T05:48:59.486Z,965.17
2016-08-20T05:49:59.490Z,965.12
2016-08-20T05:50:59.490Z,965.14
2016-08-20T05:51:59.490Z,965.15
2016-08-20T05:52:59.499Z,965.14
2016-08-20T05:53:59.495Z,965.17
2016-08-20T05:54:59.499Z,965.19
2016-08-20T05:55:59.501Z,965.22
2016-08-20T05:56:59.498Z,965.23
2016-08-20T05:57:59.503Z,965.23
2016-08-20T05:58:59.503Z,965.18
2016-08-20T05:59:59.506Z,965.21
2016-08-20T06:00:59.511Z,965.13
2016-08-20T06:01:59.511Z,965.12
2016-08-20T06:02:59.511Z,965.11
2016-08-20T06:03:59.515Z,965.11
2016-08-20T06:04:59.515Z,965.05
2016-08-20T06:05:59.519Z,965.07
2016-08-20T06:06:59.520Z,965.02
2016-08-20T06:07:59.523Z,965.06
2016-08-20T06:08:59.527Z,965.09
2016-08-20T06:09:59.527Z,965.07
2016-08-20T06:10:59.532Z,965.06
2016-08-20T06:11:59.532Z,965.06
2016-08-20T06:12:59.535Z,965.04
2016-08-20T06:13:59.535Z,965.02
2016-08-20T06:14:59.539Z,964.97
2016-08-20T06:15:59.539Z,964.98
2016-08-20T06:16:59.543Z,964.93
2016-08-20T06:17:59.548Z,964.97
2016-08-20T06:18:59.551Z,964.9
2016-08-20T06:19:59.557Z,964.92
2016-08-20T06:20:59.555Z,964.91
2016-08-20T06:21:59.559Z,964.89
2016-08-20T06:22:59.560Z,964.92
2016-08-20T06:23:59.563Z,964.9
2016-08-20T06:24:59.573Z,964.94
2016-08-20T06:25:59.572Z,964.92
2016-08-20T06:26:59.576Z,964.89
2016-08-20T06:27:59.586Z,964.92
2016-08-20T06:28:59.583Z,964.85
2016-08-20T06:29:59.588Z,964.88
2016-08-20T06:30:59.591Z,964.86
2016-08-20T06:31:59.601Z,964.84
2016-08-20T06:32:59.648Z,964.86
2016-08-20T06:33:59.604Z,964.88
2016-08-20T06:34:59.607Z,964.86
2016-08-20T06:35:59.613Z,964.86
2016-08-20T06:36:59.615Z,964.88
2016-08-20T06:37:59.620Z,964.91
2016-08-20T06:38:59.624Z,964.9
2016-08-20T06:39:59.628Z,964.88
2016-08-20T06:40:59.637Z,964.93
2016-08-20T06:41:59.640Z,964.96
2016-08-20T06:42:59.644Z,965
2016-08-20T06:43:59.648Z,964.98
2016-08-20T06:44:59.652Z,965.06
2016-08-20T06:45:59.661Z,965.05
2016-08-20T06:46:59.664Z,965.06
2016-08-20T06:47:59.669Z,965.09
2016-08-20T06:48:59.673Z,965.09
2016-08-20T06:49:59.681Z,965.07
2016-08-20T06:50:59.685Z,965.03
2016-08-20T06:51:59.693Z,965.07
2016-08-20T06:52:59.697Z,965.06
2016-08-20T06:53:59.705Z,965.05
2016-08-20T06:54:59.708Z,965.03
2016-08-20T06:55:59.713Z,965.07
2016-08-20T06:56:59.721Z,965.02
2016-08-20T06:57:59.724Z,965.01
2016-08-20T06:58:59.733Z,965.02
2016-08-20T06:59:59.737Z,965.06
2016-08-20T07:00:59.741Z,965.02
2016-08-20T07:01:59.749Z,965.07
2016-08-20T07:02:59.752Z,965.07
2016-08-20T07:03:59.762Z,965.07
2016-08-20T07:04:59.765Z,965.08
2016-08-20T07:05:59.780Z,965.12
2016-08-20T07:06:59.778Z,965.12
2016-08-20T07:07:59.785Z,965.14
2016-08-20T07:08:59.794Z,965.23
2016-08-20T07:09:59.798Z,965.21
2016-08-20T07:10:59.805Z,965.24
2016-08-20T07:11:59.814Z,965.31
2016-08-20T07:12:59.817Z,965.28
2016-08-20T07:13:59.825Z,965.27
2016-08-20T07:14:59.833Z,965.25
2016-08-20T07:15:59.837Z,965.21
2016-08-20T07:16:59.845Z,965.19
2016-08-20T07:17:59.853Z,965.13
2016-08-20T07:18:59.858Z,965.15
2016-08-20T07:19:59.866Z,965.16
2016-08-20T07:20:59.873Z,965.2
2016-08-20T07:21:59.881Z,965.23
2016-08-20T07:22:59.885Z,965.17
2016-08-20T07:23:59.899Z,965.24
2016-08-20T07:24:59.902Z,965.19
2016-08-20T07:25:59.905Z,965.23
2016-08-20T07:26:59.914Z,965.19
2016-08-20T07:27:59.921Z,965.19
2016-08-20T07:28:59.929Z,965.24
2016-08-20T07:29:59.933Z,965.2
2016-08-20T07:30:59.942Z,965.14
2016-08-20T07:31:59.954Z,965.12
2016-08-20T07:32:59.954Z,965.09
2016-08-20T07:33:59.962Z,965.09
2016-08-20T07:34:59.971Z,965.11
2016-08-20T07:35:59.974Z,965.08
2016-08-20T07:36:59.982Z,965.11
2016-08-20T07:37:59.991Z,965.16
2016-08-20T07:38:59.994Z,965.14
2016-08-20T07:40:00.003Z,965.14
2016-08-20T07:41:00.018Z,965.14
2016-08-20T07:42:00.014Z,965.14
2016-08-20T07:43:00.023Z,965.18
2016-08-20T07:44:00.027Z,965.14
2016-08-20T07:45:00.031Z,965.15
2016-08-20T07:46:00.038Z,965.17
2016-08-20T07:47:00.042Z,965.16
2016-08-20T07:48:00.051Z,965.18
2016-08-20T07:49:00.059Z,965.19
2016-08-20T07:50:00.262Z,965.21
2016-08-20T07:51:00.071Z,965.24
2016-08-20T07:52:00.071Z,965.22
2016-08-20T07:53:00.079Z,965.24
2016-08-20T07:54:00.083Z,965.23
2016-08-20T07:55:00.087Z,965.26
2016-08-20T07:56:00.096Z,965.22
2016-08-20T07:57:00.099Z,965.2
2016-08-20T07:58:00.103Z,965.21
2016-08-20T07:59:00.112Z,965.22
2016-08-20T08:00:00.128Z,965.24
2016-08-20T08:01:00.118Z,965.24
2016-08-20T08:02:00.123Z,965.29
2016-08-20T08:03:00.131Z,965.33
2016-08-20T08:04:00.135Z,965.33
2016-08-20T08:05:00.142Z,965.35
2016-08-20T08:06:00.143Z,965.38
2016-08-20T08:07:00.159Z,965.38
2016-08-20T08:08:00.155Z,965.38
2016-08-20T08:09:00.159Z,965.38
2016-08-20T08:10:00.164Z,965.4
2016-08-20T08:11:00.173Z,965.39
2016-08-20T08:12:00.175Z,965.38
2016-08-20T08:13:00.180Z,965.38
2016-08-20T08:14:00.184Z,965.37
2016-08-20T08:15:00.188Z,965.32
2016-08-20T08:16:00.192Z,965.32
2016-08-20T08:17:00.195Z,965.3
2016-08-20T08:18:00.199Z,965.29
2016-08-20T08:19:00.207Z,965.31
2016-08-20T08:20:00.212Z,965.3
2016-08-20T08:21:00.216Z,965.32
2016-08-20T08:22:00.220Z,965.3
2016-08-20T08:23:00.224Z,965.32
2016-08-20T08:24:00.228Z,965.33
2016-08-20T08:25:00.231Z,965.32
2016-08-20T08:26:00.236Z,965.35
2016-08-20T08:27:00.240Z,965.33
2016-08-20T08:28:00.248Z,965.37
2016-08-20T08:29:00.252Z,965.36
2016-08-20T08:30:00.257Z,965.38
2016-08-20T08:31:00.260Z,965.36
2016-08-20T08:32:00.264Z,965.37
2016-08-20T08:33:00.320Z,965.32
2016-08-20T08:34:00.272Z,965.32
2016-08-20T08:35:00.277Z,965.3
2016-08-20T08:36:00.280Z,965.29
2016-08-20T08:37:00.284Z,965.28
2016-08-20T08:38:00.289Z,965.27
2016-08-20T08:39:00.291Z,965.29
2016-08-20T08:40:00.301Z,965.29
2016-08-20T08:41:00.305Z,965.31
2016-08-20T08:42:00.304Z,965.35
2016-08-20T08:43:00.313Z,965.31
2016-08-20T08:44:00.317Z,965.3
2016-08-20T08:45:00.319Z,965.3
2016-08-20T08:46:00.325Z,965.31
2016-08-20T08:47:00.329Z,965.33
2016-08-20T08:48:00.333Z,965.31
2016-08-20T08:49:00.336Z,965.28
2016-08-20T08:50:00.341Z,965.23
2016-08-20T08:51:00.344Z,965.3
2016-08-20T08:52:00.348Z,965.32
2016-08-20T08:53:00.352Z,965.27
2016-08-20T08:54:00.357Z,965.26
2016-08-20T08:55:00.360Z,965.24
2016-08-20T08:56:00.368Z,965.24
2016-08-20T08:57:00.369Z,965.26
2016-08-20T08:58:00.376Z,965.24
2016-08-20T08:59:00.381Z,965.29
2016-08-20T09:00:00.385Z,965.27
2016-08-20T09:01:00.388Z,965.28
2016-08-20T09:02:00.392Z,965.31
2016-08-20T09:03:00.397Z,965.3
2016-08-20T09:04:00.401Z,965.31
2016-08-20T09:05:00.404Z,965.27
2016-08-20T09:06:00.408Z,965.28
2016-08-20T09:07:00.413Z,965.27
2016-08-20T09:08:00.416Z,965.22
2016-08-20T09:09:00.421Z,965.23
2016-08-20T09:10:00.425Z,965.2
2016-08-20T09:11:00.429Z,965.2
2016-08-20T09:12:00.434Z,965.18
2016-08-20T09:13:00.442Z,965.17
2016-08-20T09:14:00.446Z,965.18
2016-08-20T09:15:00.445Z,965.19
2016-08-20T09:16:00.449Z,965.21
2016-08-20T09:17:00.457Z,965.17
2016-08-20T09:18:00.462Z,965.15
2016-08-20T09:19:00.461Z,965.19
2016-08-20T09:20:00.470Z,965.19
2016-08-20T09:21:00.474Z,965.22
2016-08-20T09:22:00.474Z,965.23
2016-08-20T09:23:00.482Z,965.26
2016-08-20T09:24:00.485Z,965.26
2016-08-20T09:25:00.489Z,965.28
2016-08-20T09:26:00.493Z,965.29
2016-08-20T09:27:00.498Z,965.29
2016-08-20T09:28:00.501Z,965.3
2016-08-20T09:29:00.505Z,965.34
2016-08-20T09:30:00.510Z,965.34
2016-08-20T09:31:00.514Z,965.37
2016-08-20T09:32:00.518Z,965.35
2016-08-20T09:33:00.527Z,965.38
2016-08-20T09:34:00.526Z,965.4
2016-08-20T09:35:00.529Z,965.47
2016-08-20T09:36:00.534Z,965.43
2016-08-20T09:37:00.537Z,965.49
2016-08-20T09:38:00.542Z,965.43
2016-08-20T09:39:00.546Z,965.42
2016-08-20T09:40:00.549Z,965.42
2016-08-20T09:41:00.554Z,965.44
2016-08-20T09:42:00.558Z,965.45
2016-08-20T09:43:00.561Z,965.41
2016-08-20T09:44:00.562Z,965.39
2016-08-20T09:45:00.567Z,965.41
2016-08-20T09:46:00.570Z,965.41
2016-08-20T09:47:00.574Z,965.39
2016-08-20T09:48:00.578Z,965.4
2016-08-20T09:49:00.582Z,965.47
2016-08-20T09:50:00.586Z,965.49
2016-08-20T09:51:00.590Z,965.54
2016-08-20T09:52:00.595Z,965.55
2016-08-20T09:53:00.598Z,965.58
2016-08-20T09:54:00.607Z,965.53
2016-08-20T09:55:00.602Z,965.52
2016-08-20T09:56:00.606Z,965.52
2016-08-20T09:57:00.611Z,965.49
2016-08-20T09:58:00.614Z,965.54
2016-08-20T09:59:00.617Z,965.54
2016-08-20T10:00:00.622Z,965.54
2016-08-20T10:01:00.627Z,965.57
2016-08-20T10:02:00.630Z,965.57
2016-08-20T10:03:00.634Z,965.57
2016-08-20T10:04:00.639Z,965.55
2016-08-20T10:05:00.638Z,965.6
2016-08-20T10:06:00.642Z,965.59
2016-08-20T10:07:00.647Z,965.6
2016-08-20T10:08:00.651Z,965.66
2016-08-20T10:09:00.654Z,965.67
2016-08-20T10:10:00.654Z,965.71
2016-08-20T10:11:00.659Z,965.73
2016-08-20T10:12:00.663Z,965.72
2016-08-20T10:13:00.667Z,965.75
2016-08-20T10:14:00.671Z,965.72
2016-08-20T10:15:00.676Z,965.74
2016-08-20T10:16:00.674Z,965.74
2016-08-20T10:17:00.680Z,965.75
2016-08-20T10:18:00.684Z,965.73
2016-08-20T10:19:00.687Z,965.74
2016-08-20T10:20:00.691Z,965.72
2016-08-20T10:21:00.691Z,965.71
2016-08-20T10:22:00.695Z,965.7
2016-08-20T10:23:00.699Z,965.71
2016-08-20T10:24:00.699Z,965.71
2016-08-20T10:25:00.703Z,965.76
2016-08-20T10:26:00.707Z,965.81
2016-08-20T10:27:00.711Z,965.86
2016-08-20T10:28:00.711Z,965.9
2016-08-20T10:29:00.715Z,965.95
2016-08-20T10:30:00.720Z,966.06
2016-08-20T10:31:00.723Z,966.09
2016-08-20T10:32:00.728Z,966.11
2016-08-20T10:33:00.780Z,966.17
2016-08-20T10:34:00.735Z,966.18
2016-08-20T10:35:00.736Z,966.22
2016-08-20T10:36:00.735Z,966.27
2016-08-20T10:37:00.740Z,966.29
2016-08-20T10:38:00.743Z,966.33
2016-08-20T10:39:00.748Z,966.28
2016-08-20T10:40:00.747Z,966.32
2016-08-20T10:41:00.751Z,966.34
2016-08-20T10:42:00.756Z,966.38
2016-08-20T10:43:00.761Z,966.35
2016-08-20T10:44:00.759Z,966.37
2016-08-20T10:45:00.764Z,966.4
2016-08-20T10:46:00.767Z,966.41
2016-08-20T10:47:00.768Z,966.38
2016-08-20T10:48:00.771Z,966.41
2016-08-20T10:49:00.779Z,966.47
2016-08-20T10:50:00.780Z,966.46
2016-08-20T10:51:00.779Z,966.53
2016-08-20T10:52:00.784Z,966.52
2016-08-20T10:53:00.787Z,966.55
2016-08-20T10:54:00.788Z,966.55
2016-08-20T10:55:00.792Z,966.59
2016-08-20T10:56:00.796Z,966.62
2016-08-20T10:57:00.796Z,966.62
2016-08-20T10:58:00.800Z,966.67
2016-08-20T10:59:00.805Z,966.69
2016-08-20T11:00:00.808Z,966.71
2016-08-20T11:01:00.808Z,966.73
2016-08-20T11:02:00.812Z,966.74
2016-08-20T11:03:00.816Z,966.73
2016-08-20T11:04:00.817Z,966.73
2016-08-20T11:05:00.821Z,966.76
2016-08-20T11:06:00.820Z,966.73
2016-08-20T11:07:00.825Z,966.69
2016-08-20T11:08:00.829Z,966.72
2016-08-20T11:09:00.832Z,966.7
2016-08-20T11:10:00.832Z,966.67
2016-08-20T11:11:00.836Z,966.66
2016-08-20T11:12:00.836Z,966.66
2016-08-20T11:13:00.841Z,966.64
2016-08-20T11:14:00.845Z,966.62
2016-08-20T11:15:00.849Z,966.64
2016-08-20T11:16:00.849Z,966.59
2016-08-20T11:17:00.853Z,966.59
2016-08-20T11:18:00.857Z,966.59
2016-08-20T11:19:00.863Z,966.57
2016-08-20T11:20:00.862Z,966.53
2016-08-20T11:21:00.861Z,966.52
2016-08-20T11:22:00.864Z,966.48
2016-08-20T11:23:00.869Z,966.5
2016-08-20T11:24:00.869Z,966.49
2016-08-20T11:25:00.873Z,966.46
2016-08-20T11:26:00.878Z,966.46
2016-08-20T11:27:00.876Z,966.46
2016-08-20T11:28:00.881Z,966.45
2016-08-20T11:29:00.886Z,966.45
2016-08-20T11:30:00.885Z,966.41
2016-08-20T11:31:00.903Z,966.41
2016-08-20T11:32:00.894Z,966.43
2016-08-20T11:33:00.893Z,966.41
2016-08-20T11:34:00.897Z,966.42
2016-08-20T11:35:00.901Z,966.45
2016-08-20T11:36:00.902Z,966.43
2016-08-20T11:37:00.905Z,966.46
2016-08-20T11:38:00.909Z,966.41
2016-08-20T11:39:00.910Z,966.38
2016-08-20T11:40:00.914Z,966.39
2016-08-20T11:41:00.918Z,966.36
2016-08-20T11:42:00.918Z,966.31
2016-08-20T11:43:00.922Z,966.32
2016-08-20T11:44:00.927Z,966.33
2016-08-20T11:45:00.925Z,966.34
2016-08-20T11:46:00.931Z,966.34
2016-08-20T11:47:00.933Z,966.35
2016-08-20T11:48:00.935Z,966.37
2016-08-20T11:49:00.939Z,966.39
2016-08-20T11:50:00.939Z,966.4
2016-08-20T11:51:00.943Z,966.44
2016-08-20T11:52:00.943Z,966.46
2016-08-20T11:53:00.946Z,966.52
2016-08-20T11:54:00.950Z,966.55
2016-08-20T11:55:00.956Z,966.59
2016-08-20T11:56:00.954Z,966.61
2016-08-20T11:57:00.959Z,966.64
2016-08-20T11:58:00.959Z,966.68
2016-08-20T11:59:00.963Z,966.7
2016-08-20T12:00:00.963Z,966.74
2016-08-20T12:01:00.967Z,966.75
2016-08-20T12:02:00.971Z,966.77
2016-08-20T12:03:00.971Z,966.73
2016-08-20T12:04:00.975Z,966.8
2016-08-20T12:05:00.979Z,966.77
2016-08-20T12:06:00.979Z,966.77
2016-08-20T12:07:00.984Z,966.76
2016-08-20T12:08:00.988Z,966.78
2016-08-20T12:09:00.988Z,966.83
2016-08-20T12:10:00.991Z,966.84
2016-08-20T12:11:00.992Z,966.86
2016-08-20T12:12:00.995Z,966.83
2016-08-20T12:13:01.000Z,966.83
2016-08-20T12:14:00.999Z,966.8
2016-08-20T12:15:01.005Z,966.84
2016-08-20T12:16:01.007Z,966.77
2016-08-20T12:17:01.008Z,966.77
2016-08-20T12:18:01.012Z,966.8
2016-08-20T12:19:01.016Z,966.83
2016-08-20T12:20:01.031Z,966.8
2016-08-20T12:21:01.020Z,966.82
2016-08-20T12:22:01.020Z,966.82
2016-08-20T12:23:01.024Z,966.83
2016-08-20T12:24:01.028Z,966.86
2016-08-20T12:25:01.029Z,966.89
2016-08-20T12:26:01.033Z,966.88
2016-08-20T12:27:01.036Z,966.88
2016-08-20T12:28:01.036Z,966.89
2016-08-20T12:29:01.041Z,966.88
2016-08-20T12:30:01.044Z,966.87
2016-08-20T12:31:01.045Z,966.87